createdAt,value
2022-07-25T00:01:59.463Z,100275.81
2022-07-25T00:04:26.731Z,100274.41
2022-07-25T00:06:52.923Z,100270.25
2022-07-25T00:09:19.081Z,100266.16
2022-07-25T00:11:45.265Z,100268.28
2022-07-25T00:14:11.452Z,100264.38
2022-07-25T00:16:37.688Z,100259.78
2022-07-25T00:19:03.931Z,100270.09
2022-07-25T00:21:30.085Z,100263.84
2022-07-25T00:23:56.276Z,100273.44
2022-07-25T00:26:22.448Z,100258.53
2022-07-25T00:28:48.747Z,100263.13
2022-07-25T00:31:14.946Z,100263.25
2022-07-25T00:33:41.163Z,100255.88
2022-07-25T00:36:07.349Z,100255.31
2022-07-25T00:38:33.557Z,100255.03
2022-07-25T00:40:59.713Z,100254.63
2022-07-25T00:43:25.873Z,100252.53
2022-07-25T00:45:52.073Z,100254.63
2022-07-25T00:48:18.685Z,100251.97
2022-07-25T00:50:44.850Z,100249.06
2022-07-25T00:53:11.033Z,100243.75
2022-07-25T00:55:37.175Z,100236.88
2022-07-25T00:58:03.354Z,100229.09
2022-07-25T01:00:29.539Z,100232.88
2022-07-25T01:02:56.798Z,100225.72
2022-07-25T01:05:23.083Z,100226.00
2022-07-25T01:07:49.275Z,100218.06
2022-07-25T01:10:15.451Z,100224.50
2022-07-25T01:12:41.626Z,100210.41
2022-07-25T01:15:07.800Z,100209.41
2022-07-25T01:17:34.016Z,100206.34
2022-07-25T01:20:00.236Z,100207.19
2022-07-25T01:22:26.392Z,100207.22
2022-07-25T01:24:52.592Z,100206.38
2022-07-25T01:27:18.764Z,100195.78
2022-07-25T01:29:44.984Z,100200.81
2022-07-25T01:32:11.165Z,100200.91
2022-07-25T01:34:37.305Z,100197.31
2022-07-25T01:37:03.485Z,100202.91
2022-07-25T01:39:29.642Z,100196.31
2022-07-25T01:41:55.856Z,100202.47
2022-07-25T01:44:21.995Z,100202.56
2022-07-25T01:46:48.231Z,100204.19
2022-07-25T01:49:14.463Z,100200.44
2022-07-25T01:51:40.657Z,100200.19
2022-07-25T01:54:08.955Z,100202.94
2022-07-25T01:56:36.719Z,100200.97
2022-07-25T01:59:02.956Z,100210.13
2022-07-25T02:01:29.209Z,100202.38
2022-07-25T02:03:55.420Z,100195.69
2022-07-25T02:06:21.567Z,100198.31
2022-07-25T02:08:47.751Z,100191.31
2022-07-25T02:11:14.063Z,100199.25
2022-07-25T02:13:40.213Z,100196.06
2022-07-25T02:16:06.392Z,100192.00
2022-07-25T02:18:32.562Z,100200.09
2022-07-25T02:20:58.738Z,100191.72
2022-07-25T02:23:24.913Z,100195.94
2022-07-25T02:25:51.100Z,100196.47
2022-07-25T02:28:17.267Z,100193.59
2022-07-25T02:30:43.490Z,100194.69
2022-07-25T02:33:09.698Z,100189.16
2022-07-25T02:35:35.872Z,100186.38
2022-07-25T02:38:02.052Z,100185.25
2022-07-25T02:40:28.206Z,100183.16
2022-07-25T02:42:54.388Z,100179.22
2022-07-25T02:45:20.539Z,100182.16
2022-07-25T02:47:46.708Z,100175.56
2022-07-25T02:50:15.007Z,100173.91
2022-07-25T02:52:41.346Z,100181.41
2022-07-25T02:55:09.732Z,100171.47
2022-07-25T02:57:36.202Z,100175.19
2022-07-25T03:00:02.365Z,100180.47
2022-07-25T03:02:28.529Z,100177.44
2022-07-25T03:04:54.713Z,100177.81
2022-07-25T03:07:20.863Z,100174.03
2022-07-25T03:09:47.015Z,100171.63
2022-07-25T03:12:13.202Z,100180.41
2022-07-25T03:14:39.370Z,100166.09
2022-07-25T03:17:05.671Z,100171.16
2022-07-25T03:19:31.926Z,100164.88
2022-07-25T03:21:58.093Z,100160.44
2022-07-25T03:24:24.280Z,100171.72
2022-07-25T03:26:50.461Z,100163.09
2022-07-25T03:29:16.631Z,100169.09
2022-07-25T03:31:42.847Z,100163.50
2022-07-25T03:34:09.258Z,100167.69
2022-07-25T03:36:35.632Z,100157.09
2022-07-25T03:39:01.810Z,100162.97
2022-07-25T03:41:31.893Z,100161.31
2022-07-25T03:43:58.052Z,100150.59
2022-07-25T03:46:24.306Z,100157.72
2022-07-25T03:48:50.568Z,100155.59
2022-07-25T03:51:16.753Z,100157.53
2022-07-25T03:53:42.926Z,100156.31
2022-07-25T03:56:09.094Z,100162.84
2022-07-25T03:58:35.248Z,100156.88
2022-07-25T04:01:01.515Z,100154.47
2022-07-25T04:03:27.944Z,100146.53
2022-07-25T04:05:54.103Z,100153.78
2022-07-25T04:08:20.271Z,100154.16
2022-07-25T04:10:46.430Z,100154.03
2022-07-25T04:13:12.628Z,100154.59
2022-07-25T04:15:38.808Z,100148.34
2022-07-25T04:18:04.950Z,100151.00
2022-07-25T04:20:33.427Z,100145.44
2022-07-25T04:22:59.611Z,100142.66
2022-07-25T04:25:25.782Z,100144.06
2022-07-25T04:27:51.964Z,100146.72
2022-07-25T04:30:24.067Z,100152.44
2022-07-25T04:32:50.927Z,100143.09
2022-07-25T04:35:17.123Z,100136.59
2022-07-25T04:37:43.284Z,100133.94
2022-07-25T04:40:09.472Z,100134.94
2022-07-25T04:42:35.629Z,100140.25
2022-07-25T04:45:01.794Z,100133.44
2022-07-25T04:47:27.996Z,100125.47
2022-07-25T04:49:54.197Z,100126.47
2022-07-25T04:52:20.397Z,100131.78
2022-07-25T04:54:46.568Z,100120.66
2022-07-25T04:57:12.747Z,100124.41
2022-07-25T04:59:38.909Z,100127.19
2022-07-25T05:02:05.165Z,100125.66
2022-07-25T05:04:31.360Z,100120.88
2022-07-25T05:06:57.714Z,100126.44
2022-07-25T05:09:23.910Z,100127.25
2022-07-25T05:11:55.913Z,100124.72
2022-07-25T05:14:22.854Z,100126.09
2022-07-25T05:16:49.124Z,100120.59
2022-07-25T05:19:15.350Z,100122.22
2022-07-25T05:21:41.504Z,100121.44
2022-07-25T05:24:08.032Z,100117.00
2022-07-25T05:26:34.442Z,100115.38
2022-07-25T05:29:00.592Z,100115.16
2022-07-25T05:31:26.773Z,100113.34
2022-07-25T05:33:53.010Z,100110.38
2022-07-25T05:36:19.169Z,100107.97
2022-07-25T05:38:45.370Z,100114.56
2022-07-25T05:41:11.529Z,100111.88
2022-07-25T05:43:37.684Z,100105.28
2022-07-25T05:46:03.862Z,100103.91
2022-07-25T05:48:30.051Z,100108.97
2022-07-25T05:50:56.297Z,100103.63
2022-07-25T05:53:22.490Z,100109.94
2022-07-25T05:55:48.670Z,100109.94
2022-07-25T05:58:14.838Z,100113.84
2022-07-25T06:00:40.991Z,100105.94
2022-07-25T06:03:07.210Z,100108.00
2022-07-25T06:05:33.458Z,100095.56
2022-07-25T06:07:59.649Z,100094.84
2022-07-25T06:10:25.845Z,100097.59
2022-07-25T06:12:52.030Z,100091.91
2022-07-25T06:15:22.084Z,100092.63
2022-07-25T06:17:52.970Z,100092.19
2022-07-25T06:20:19.341Z,100092.97
2022-07-25T06:22:45.508Z,100089.97
2022-07-25T06:25:11.712Z,100084.13
2022-07-25T06:27:37.856Z,100085.91
2022-07-25T06:30:04.021Z,100072.22
2022-07-25T06:32:30.203Z,100074.72
2022-07-25T06:34:56.365Z,100078.78
2022-07-25T06:37:22.549Z,100085.06
2022-07-25T06:39:48.753Z,100084.78
2022-07-25T06:42:14.962Z,100087.66
2022-07-25T06:44:42.614Z,100085.97
2022-07-25T06:47:08.831Z,100078.91
2022-07-25T06:49:35.042Z,100080.44
2022-07-25T06:52:01.238Z,100085.16
2022-07-25T06:54:27.411Z,100079.25
2022-07-25T06:56:53.583Z,100086.38
2022-07-25T06:59:19.776Z,100081.50
2022-07-25T07:01:51.076Z,100073.78
2022-07-25T07:04:17.779Z,100074.25
2022-07-25T07:06:43.949Z,100065.72
2022-07-25T07:09:10.136Z,100065.50
2022-07-25T07:11:36.311Z,100062.69
2022-07-25T07:14:02.591Z,100059.41
2022-07-25T07:16:28.873Z,100055.44
2022-07-25T07:18:55.088Z,100064.38
2022-07-25T07:21:21.749Z,100068.78
2022-07-25T07:23:48.019Z,100075.06
2022-07-25T07:26:14.468Z,100073.59
2022-07-25T07:28:40.666Z,100078.34
2022-07-25T07:31:16.294Z,100068.59
2022-07-25T07:33:43.503Z,100065.72
2022-07-25T07:36:09.685Z,100065.31
2022-07-25T07:38:35.893Z,100063.63
2022-07-25T07:41:02.073Z,100077.72
2022-07-25T07:43:30.270Z,100067.34
2022-07-25T07:45:56.651Z,100070.28
2022-07-25T07:48:22.842Z,100062.97
2022-07-25T07:50:49.005Z,100065.50
2022-07-25T07:53:15.192Z,100065.91
2022-07-25T07:55:41.477Z,100065.91
2022-07-25T07:58:07.653Z,100060.53
2022-07-25T08:00:33.847Z,100067.22
2022-07-25T08:03:00.166Z,100056.81
2022-07-25T08:05:26.471Z,100059.75
2022-07-25T08:07:52.637Z,100050.81
2022-07-25T08:10:18.905Z,100056.81
2022-07-25T08:12:45.068Z,100055.56
2022-07-25T08:15:11.279Z,100059.09
2022-07-25T08:17:37.457Z,100066.75
2022-07-25T08:20:20.988Z,100065.53
2022-07-25T08:22:54.419Z,100070.91
2022-07-25T08:25:22.656Z,100075.66
2022-07-25T08:27:48.855Z,100068.75
2022-07-25T08:30:15.082Z,100065.03
2022-07-25T08:32:41.275Z,100065.50
2022-07-25T08:35:11.387Z,100055.13
2022-07-25T08:37:37.840Z,100060.72
2022-07-25T08:40:04.045Z,100056.97
2022-07-25T08:42:30.218Z,100050.34
2022-07-25T08:44:56.399Z,100062.28
2022-07-25T08:47:22.629Z,100053.34
2022-07-25T08:49:48.810Z,100063.22
2022-07-25T08:52:14.975Z,100053.31
2022-07-25T08:54:41.178Z,100048.78
2022-07-25T08:57:07.375Z,100045.50
2022-07-25T08:59:33.559Z,100046.63
2022-07-25T09:01:59.830Z,100041.97
2022-07-25T09:04:26.042Z,100037.31
2022-07-25T09:06:52.270Z,100037.69
2022-07-25T09:09:18.449Z,100007.91
2022-07-25T09:11:44.635Z,100024.97
2022-07-25T09:14:14.977Z,100020.03
2022-07-25T09:16:41.682Z,100020.75
2022-07-25T09:19:07.889Z,100024.16
2022-07-25T09:21:34.062Z,100024.69
2022-07-25T09:24:00.280Z,100024.03
2022-07-25T09:26:26.602Z,100025.16
2022-07-25T09:28:55.306Z,100023.50
2022-07-25T09:31:21.645Z,100016.63
2022-07-25T09:33:47.871Z,100020.03
2022-07-25T09:36:14.080Z,100019.34
2022-07-25T09:38:40.257Z,100013.16
2022-07-25T09:41:06.441Z,100010.28
2022-07-25T09:43:32.602Z,100009.28
2022-07-25T09:45:58.894Z,99992.31
2022-07-25T09:48:25.139Z,99993.91
2022-07-25T09:50:51.377Z,99987.59
2022-07-25T09:53:17.631Z,99992.25
2022-07-25T09:55:43.822Z,99985.16
2022-07-25T09:58:10.063Z,99968.94
2022-07-25T10:00:36.243Z,99978.81
2022-07-25T10:03:02.486Z,99965.66
2022-07-25T10:05:28.763Z,99967.94
2022-07-25T10:07:54.969Z,99964.41
2022-07-25T10:10:21.174Z,99960.53
2022-07-25T10:12:47.345Z,99968.19
2022-07-25T10:15:13.548Z,99957.38
2022-07-25T10:17:39.771Z,99956.06
2022-07-25T10:20:05.940Z,99954.41
2022-07-25T10:22:54.691Z,99964.38
2022-07-25T10:25:18.280Z,99966.63
2022-07-25T10:27:44.526Z,99963.50
2022-07-25T10:30:10.700Z,99964.69
2022-07-25T10:32:36.868Z,99966.19
2022-07-25T10:35:03.043Z,99959.72
2022-07-25T10:37:29.196Z,99947.19
2022-07-25T10:39:55.387Z,99947.78
2022-07-25T10:42:21.538Z,99945.50
2022-07-25T10:44:47.731Z,99953.25
2022-07-25T10:47:13.929Z,99950.88
2022-07-25T10:49:50.106Z,99945.63
2022-07-25T10:52:26.332Z,99939.59
2022-07-25T10:54:52.525Z,99934.34
2022-07-25T10:57:18.687Z,99934.00
2022-07-25T10:59:44.860Z,99936.34
2022-07-25T11:02:11.177Z,99933.44
2022-07-25T11:04:37.392Z,99929.47
2022-07-25T11:07:03.577Z,99928.56
2022-07-25T11:09:29.821Z,99936.13
2022-07-25T11:11:55.975Z,99932.59
2022-07-25T11:14:22.153Z,99931.63
2022-07-25T11:16:48.386Z,99937.13
2022-07-25T11:19:14.579Z,99922.22
2022-07-25T11:21:40.795Z,99926.19
2022-07-25T11:24:06.952Z,99927.91
2022-07-25T11:26:33.131Z,99927.47
2022-07-25T11:28:59.343Z,99919.00
2022-07-25T11:31:25.571Z,99917.00
2022-07-25T11:33:51.777Z,99919.97
2022-07-25T11:36:17.966Z,99914.03
2022-07-25T11:38:44.185Z,99905.28
2022-07-25T11:41:10.343Z,99917.38
2022-07-25T11:43:36.571Z,99911.72
2022-07-25T11:46:02.818Z,99918.72
2022-07-25T11:48:29.108Z,99923.63
2022-07-25T11:50:55.309Z,99919.97
2022-07-25T11:53:21.493Z,99921.41
2022-07-25T11:55:47.691Z,99913.53
2022-07-25T11:58:13.870Z,99917.94
2022-07-25T12:00:40.070Z,99911.44
2022-07-25T12:03:06.418Z,99912.50
2022-07-25T12:05:32.640Z,99911.63
2022-07-25T12:07:58.846Z,99903.28
2022-07-25T12:10:25.073Z,99908.56
2022-07-25T12:12:51.232Z,99904.63
2022-07-25T12:15:17.396Z,99906.84
2022-07-25T12:17:43.573Z,99901.41
2022-07-25T12:20:11.079Z,99900.53
2022-07-25T12:22:37.318Z,99900.13
2022-07-25T12:25:03.513Z,99897.91
2022-07-25T12:27:29.682Z,99893.66
2022-07-25T12:29:55.880Z,99883.06
2022-07-25T12:32:22.108Z,99877.44
2022-07-25T12:34:48.275Z,99875.91
2022-07-25T12:37:14.600Z,99861.41
2022-07-25T12:39:40.775Z,99866.78
2022-07-25T12:42:06.976Z,99854.09
2022-07-25T12:44:33.220Z,99847.03
2022-07-25T12:46:59.454Z,99840.00
2022-07-25T12:49:25.668Z,99844.75
2022-07-25T12:51:56.169Z,99846.41
2022-07-25T12:54:24.326Z,99840.13
2022-07-25T12:56:50.528Z,99837.41
2022-07-25T12:59:16.866Z,99840.50
2022-07-25T13:01:43.109Z,99838.78
2022-07-25T13:04:09.403Z,99849.31
2022-07-25T13:06:38.921Z,99840.00
2022-07-25T13:09:05.500Z,99836.41
2022-07-25T13:11:31.889Z,99850.13
2022-07-25T13:13:58.058Z,99845.09
2022-07-25T13:16:24.305Z,99842.84
2022-07-25T13:18:51.589Z,99843.44
2022-07-25T13:21:17.798Z,99848.63
2022-07-25T13:23:43.958Z,99845.91
2022-07-25T13:26:10.167Z,99852.59
2022-07-25T13:28:36.373Z,99848.13
2022-07-25T13:31:02.561Z,99844.84
2022-07-25T13:33:29.148Z,99856.59
2022-07-25T13:35:55.375Z,99857.53
2022-07-25T13:38:21.628Z,99854.56
2022-07-25T13:40:47.784Z,99855.00
2022-07-25T13:43:14.044Z,99844.59
2022-07-25T13:45:40.403Z,99861.84
2022-07-25T13:48:28.292Z,99852.53
2022-07-25T13:50:54.759Z,99852.25
2022-07-25T13:53:20.931Z,99849.44
2022-07-25T13:55:47.110Z,99865.72
2022-07-25T13:58:13.334Z,99864.28
2022-07-25T14:00:39.575Z,99868.69
2022-07-25T14:03:05.770Z,99866.28
2022-07-25T14:05:31.994Z,99853.75
2022-07-25T14:07:58.219Z,99841.06
2022-07-25T14:10:24.424Z,99837.25
2022-07-25T14:12:50.629Z,99830.09
2022-07-25T14:15:16.864Z,99834.66
2022-07-25T14:17:43.027Z,99834.47
2022-07-25T14:20:09.279Z,99846.69
2022-07-25T14:22:35.600Z,99863.31
2022-07-25T14:25:01.790Z,99868.28
2022-07-25T14:27:27.983Z,99876.41
2022-07-25T14:29:54.198Z,99860.59
2022-07-25T14:32:20.466Z,99860.47
2022-07-25T14:34:46.639Z,99849.66
2022-07-25T14:37:12.830Z,99845.91
2022-07-25T14:39:39.050Z,99851.31
2022-07-25T14:42:05.974Z,99848.22
2022-07-25T14:44:32.171Z,99851.97
2022-07-25T14:46:58.432Z,99852.78
2022-07-25T14:49:24.701Z,99850.59
2022-07-25T14:51:50.915Z,99832.16
2022-07-25T14:54:17.094Z,99834.16
2022-07-25T14:56:45.371Z,99834.69
2022-07-25T14:59:11.613Z,99846.66
2022-07-25T15:01:37.847Z,99842.31
2022-07-25T15:04:04.240Z,99840.69
2022-07-25T15:06:30.413Z,99842.06
2022-07-25T15:08:56.645Z,99838.00
2022-07-25T15:11:22.846Z,99835.88
2022-07-25T15:13:49.043Z,99841.41
2022-07-25T15:16:15.310Z,99835.78
2022-07-25T15:19:05.498Z,99841.28
2022-07-25T15:21:27.659Z,99835.47
2022-07-25T15:23:54.526Z,99836.25
2022-07-25T15:26:20.676Z,99828.59
2022-07-25T15:28:46.874Z,99833.06
2022-07-25T15:31:13.318Z,99832.69
2022-07-25T15:33:39.543Z,99831.63
2022-07-25T15:36:05.756Z,99831.97
2022-07-25T15:41:12.019Z,99832.75
2022-07-25T15:43:40.445Z,99818.38
2022-07-25T15:46:06.643Z,99811.75
2022-07-25T15:48:32.836Z,99813.19
2022-07-25T15:51:02.595Z,99812.63
2022-07-25T15:53:28.737Z,99809.44
2022-07-25T15:55:54.930Z,99807.50
2022-07-25T15:58:21.103Z,99815.97
2022-07-25T16:00:47.329Z,99811.72
2022-07-25T16:03:13.589Z,99821.59
2022-07-25T16:05:39.738Z,99819.44
2022-07-25T16:08:05.923Z,99819.53
2022-07-25T16:10:32.116Z,99815.16
2022-07-25T16:12:58.281Z,99824.84
2022-07-25T16:15:24.499Z,99826.00
2022-07-25T16:17:50.703Z,99825.53
2022-07-25T16:20:16.867Z,99838.94
2022-07-25T16:22:43.056Z,99826.81
2022-07-25T16:25:09.220Z,99825.31
2022-07-25T16:27:35.401Z,99823.66
2022-07-25T16:30:01.588Z,99835.19
2022-07-25T16:32:27.785Z,99827.66
2022-07-25T16:34:54.063Z,99828.25
2022-07-25T16:37:20.238Z,99839.19
2022-07-25T16:39:47.549Z,99841.22
2022-07-25T16:42:13.745Z,99845.66
2022-07-25T16:44:39.918Z,99852.13
2022-07-25T16:47:06.157Z,99853.06
2022-07-25T16:49:32.390Z,99862.25
2022-07-25T16:51:58.581Z,99868.84
2022-07-25T16:54:24.831Z,99877.13
2022-07-25T16:56:54.156Z,99881.03
2022-07-25T16:59:21.815Z,99897.78
2022-07-25T17:01:48.034Z,99889.28
2022-07-25T17:04:14.306Z,99890.19
2022-07-25T17:06:41.702Z,99898.38
2022-07-25T17:09:08.310Z,99903.47
2022-07-25T17:11:34.745Z,99908.88
2022-07-25T17:14:00.924Z,99909.31
2022-07-25T17:16:27.188Z,99925.94
2022-07-25T17:18:53.487Z,99927.81
2022-07-25T17:21:19.646Z,99934.47
2022-07-25T17:23:45.808Z,99936.13
2022-07-25T17:26:12.008Z,99954.78
2022-07-25T17:28:38.178Z,99948.81
2022-07-25T17:31:04.405Z,99954.56
2022-07-25T17:33:30.644Z,99951.88
2022-07-25T17:35:56.858Z,99958.31
2022-07-25T17:38:26.460Z,99957.06
2022-07-25T17:40:54.641Z,99960.19
2022-07-25T17:43:20.813Z,99970.09
2022-07-25T17:45:47.009Z,99969.69
2022-07-25T17:48:13.209Z,99971.56
2022-07-25T17:50:39.366Z,99981.28
2022-07-25T17:53:05.587Z,99980.59
2022-07-25T17:55:38.199Z,99980.41
2022-07-25T17:58:05.035Z,99984.94
2022-07-25T18:00:31.182Z,99992.97
2022-07-25T18:02:57.415Z,99998.56
2022-07-25T18:05:23.642Z,99991.31
2022-07-25T18:07:49.839Z,99993.56
2022-07-25T18:10:16.019Z,100002.06
2022-07-25T18:12:42.211Z,100006.56
2022-07-25T18:15:08.433Z,100015.63
2022-07-25T18:17:34.616Z,100013.72
2022-07-25T18:20:00.800Z,100025.25
2022-07-25T18:22:26.989Z,100033.66
2022-07-25T18:24:53.186Z,100031.75
2022-07-25T18:27:19.360Z,100035.84
2022-07-25T18:29:45.544Z,100033.56
2022-07-25T18:32:11.761Z,100040.13
2022-07-25T18:34:37.924Z,100039.69
2022-07-25T18:37:04.109Z,100035.09
2022-07-25T18:39:30.263Z,100040.19
2022-07-25T18:41:56.441Z,100037.66
2022-07-25T18:44:22.664Z,100043.19
2022-07-25T18:46:48.892Z,100039.81
2022-07-25T18:49:15.196Z,100034.97
2022-07-25T18:51:41.506Z,100041.75
2022-07-25T18:54:07.985Z,100042.53
2022-07-25T18:56:34.471Z,100038.75
2022-07-25T18:59:00.669Z,100039.53
2022-07-25T19:01:28.911Z,100045.53
2022-07-25T19:03:55.624Z,100050.06
2022-07-25T19:06:21.863Z,100046.44
2022-07-25T19:08:48.064Z,100054.25
2022-07-25T19:11:14.231Z,100065.81
2022-07-25T19:13:49.410Z,100070.44
2022-07-25T19:16:16.552Z,100078.28
2022-07-25T19:18:42.983Z,100089.59
2022-07-25T19:21:09.156Z,100089.97
2022-07-25T19:23:35.370Z,100084.63
2022-07-25T19:26:01.566Z,100100.44
2022-07-25T19:28:27.758Z,100105.94
2022-07-25T19:30:54.085Z,100106.44
2022-07-25T19:33:20.308Z,100109.06
2022-07-25T19:35:46.466Z,100115.78
2022-07-25T19:38:12.664Z,100123.94
2022-07-25T19:40:38.861Z,100115.25
2022-07-25T19:43:05.044Z,100124.47
2022-07-25T19:45:31.212Z,100125.56
2022-07-25T19:47:57.393Z,100127.16
2022-07-25T19:50:23.589Z,100127.25
2022-07-25T19:52:49.796Z,100135.34
2022-07-25T19:55:15.996Z,100140.13
2022-07-25T19:57:42.890Z,100135.63
2022-07-25T20:00:09.069Z,100140.41
2022-07-25T20:02:35.318Z,100138.47
2022-07-25T20:05:01.537Z,100136.66
2022-07-25T20:07:27.743Z,100146.59
2022-07-25T20:09:53.953Z,100156.19
2022-07-25T20:12:20.149Z,100159.56
2022-07-25T20:14:46.332Z,100170.81
2022-07-25T20:17:12.526Z,100181.41
2022-07-25T20:19:42.690Z,100180.56
2022-07-25T20:22:08.994Z,100182.63
2022-07-25T20:24:35.223Z,100181.16
2022-07-25T20:27:01.401Z,100195.06
2022-07-25T20:29:27.604Z,100197.44
2022-07-25T20:31:53.787Z,100203.47
2022-07-25T20:34:19.997Z,100218.00
2022-07-25T20:36:46.223Z,100230.41
2022-07-25T20:39:12.396Z,100227.59
2022-07-25T20:41:39.281Z,100228.44
2022-07-25T20:44:05.473Z,100231.13
2022-07-25T20:46:31.767Z,100246.03
2022-07-25T20:48:58.056Z,100244.81
2022-07-25T20:51:24.291Z,100244.50
2022-07-25T20:53:51.654Z,100250.03
2022-07-25T20:56:19.948Z,100249.03
2022-07-25T20:58:46.147Z,100249.22
2022-07-25T21:01:12.366Z,100255.22
2022-07-25T21:03:38.624Z,100267.75
2022-07-25T21:06:04.811Z,100267.44
2022-07-25T21:08:30.976Z,100271.47
2022-07-25T21:10:57.149Z,100270.28
2022-07-25T21:13:23.444Z,100268.63
2022-07-25T21:15:49.625Z,100282.63
2022-07-25T21:18:17.624Z,100280.31
2022-07-25T21:20:43.827Z,100278.16
2022-07-25T21:23:09.980Z,100276.81
2022-07-25T21:25:36.345Z,100280.66
2022-07-25T21:28:02.536Z,100286.34
2022-07-25T21:30:28.685Z,100288.69
2022-07-25T21:32:54.877Z,100282.34
2022-07-25T21:35:21.029Z,100279.50
2022-07-25T21:37:47.217Z,100283.69
2022-07-25T21:40:13.373Z,100282.03
2022-07-25T21:42:39.553Z,100286.69
2022-07-25T21:45:05.718Z,100290.84
2022-07-25T21:47:31.904Z,100292.69
2022-07-25T21:49:58.052Z,100288.69
2022-07-25T21:52:26.713Z,100288.03
2022-07-25T21:55:00.148Z,100292.69
2022-07-25T21:57:26.300Z,100289.50
2022-07-25T21:59:52.459Z,100285.69
2022-07-25T22:02:18.667Z,100279.31
2022-07-25T22:04:44.849Z,100277.97
2022-07-25T22:07:11.025Z,100284.47
2022-07-25T22:09:37.223Z,100286.78
2022-07-25T22:12:03.605Z,100288.94
2022-07-25T22:14:29.824Z,100293.09
2022-07-25T22:16:56.054Z,100294.09
2022-07-25T22:19:22.756Z,100300.91
2022-07-25T22:21:49.044Z,100306.94
2022-07-25T22:24:15.217Z,100310.59
2022-07-25T22:26:41.402Z,100313.63
2022-07-25T22:29:07.777Z,100322.59
2022-07-25T22:31:34.371Z,100321.28
2022-07-25T22:34:00.631Z,100322.47
2022-07-25T22:36:26.815Z,100325.31
2022-07-25T22:38:52.990Z,100327.94
2022-07-25T22:41:19.175Z,100327.13
2022-07-25T22:43:58.926Z,100323.94
2022-07-25T22:46:25.775Z,100323.44
2022-07-25T22:48:52.064Z,100328.63
2022-07-25T22:51:18.307Z,100331.63
2022-07-25T22:53:44.503Z,100326.44
2022-07-25T22:56:10.677Z,100331.78
2022-07-25T22:58:36.845Z,100324.78
2022-07-25T23:01:03.016Z,100325.44
2022-07-25T23:03:32.329Z,100318.59
2022-07-25T23:05:59.226Z,100316.28
2022-07-25T23:08:25.458Z,100326.75
2022-07-25T23:10:51.613Z,100333.59
2022-07-25T23:13:17.762Z,100337.09
2022-07-25T23:15:50.379Z,100335.59
2022-07-25T23:18:17.678Z,100339.28
2022-07-25T23:20:43.854Z,100344.78
2022-07-25T23:23:10.025Z,100350.78
2022-07-25T23:25:36.174Z,100346.59
2022-07-25T23:28:02.372Z,100345.78
2022-07-25T23:30:28.561Z,100353.91
2022-07-25T23:32:54.731Z,100359.75
2022-07-25T23:35:20.882Z,100348.56
2022-07-25T23:37:47.069Z,100347.09
2022-07-25T23:40:13.218Z,100336.94
2022-07-25T23:42:39.368Z,100334.28
2022-07-25T23:45:05.956Z,100336.94
2022-07-25T23:47:39.347Z,100331.78
2022-07-25T23:50:05.980Z,100329.63
2022-07-25T23:52:32.137Z,100333.28
2022-07-25T23:54:58.300Z,100345.13
2022-07-25T23:57:24.501Z,100346.59
2022-07-25T23:59:50.658Z,100345.44
